createdAt,value
2022-11-17T00:01:08.497Z,21.90
2022-11-17T00:03:39.956Z,23.47
2022-11-17T00:06:10.017Z,20.83
2022-11-17T00:08:39.857Z,21.13
2022-11-17T00:11:11.279Z,19.47
2022-11-17T00:13:58.797Z,20.00
2022-11-17T00:16:29.697Z,20.63
2022-11-17T00:19:18.497Z,17.90
2022-11-17T00:21:49.236Z,18.60
2022-11-17T00:24:19.876Z,18.67
2022-11-17T00:27:03.076Z,19.23
2022-11-17T00:29:34.467Z,20.50
2022-11-17T00:32:23.538Z,18.50
2022-11-17T00:34:54.497Z,18.00
2022-11-17T00:37:24.656Z,17.20
2022-11-17T00:40:00.344Z,19.37
2022-11-17T00:42:31.237Z,19.50
2022-11-17T00:45:01.081Z,21.00
2022-11-17T00:47:32.417Z,21.07
2022-11-17T00:50:03.716Z,19.80
2022-11-17T00:52:33.876Z,19.97
2022-11-17T00:55:03.874Z,20.73
2022-11-17T00:57:33.959Z,18.40
2022-11-17T01:00:04.356Z,19.80
2022-11-17T01:02:34.537Z,19.10
2022-11-17T01:05:06.697Z,19.80
2022-11-17T01:07:36.552Z,19.83
2022-11-17T01:10:07.077Z,18.83
2022-11-17T01:12:37.076Z,18.70
2022-11-17T01:15:07.156Z,18.87
2022-11-17T01:17:37.316Z,19.13
2022-11-17T01:20:11.317Z,19.47
2022-11-17T01:22:40.747Z,18.47
2022-11-17T01:25:10.743Z,18.40
2022-11-17T01:27:40.776Z,20.93
2022-11-17T01:30:12.656Z,18.67
2022-11-17T01:32:42.977Z,18.43
2022-11-17T01:35:15.057Z,18.23
2022-11-17T01:37:46.337Z,18.63
2022-11-17T01:40:17.136Z,18.60
2022-11-17T01:42:47.013Z,17.47
2022-11-17T01:45:21.876Z,17.70
2022-11-17T01:47:53.058Z,18.50
2022-11-17T01:50:30.039Z,18.40
2022-11-17T01:53:02.143Z,18.53
2022-11-17T01:55:34.736Z,17.00
2022-11-17T01:58:07.162Z,20.00
2022-11-17T02:00:37.897Z,16.63
2022-11-17T02:03:11.936Z,17.80
2022-11-17T02:05:50.331Z,17.67
2022-11-17T02:08:21.296Z,17.70
2022-11-17T02:10:52.896Z,17.70
2022-11-17T02:13:23.076Z,18.57
2022-11-17T02:15:52.678Z,19.60
2022-11-17T02:18:22.669Z,17.90
2022-11-17T02:21:08.898Z,16.83
2022-11-17T02:24:02.177Z,17.87
2022-11-17T02:26:51.796Z,17.90
2022-11-17T02:29:26.095Z,17.70
2022-11-17T02:31:59.476Z,18.17
2022-11-17T02:34:36.860Z,16.90
2022-11-17T02:37:11.636Z,16.13
2022-11-17T02:39:45.342Z,17.30
2022-11-17T02:42:20.954Z,18.10
2022-11-17T02:44:55.695Z,19.47
2022-11-17T02:47:27.696Z,18.83
2022-11-17T02:50:01.554Z,17.87
2022-11-17T02:52:32.674Z,20.87
2022-11-17T02:55:03.320Z,17.13
2022-11-17T02:57:34.996Z,17.87
2022-11-17T03:00:08.915Z,16.93
2022-11-17T03:03:09.715Z,17.83
2022-11-17T03:05:45.235Z,19.57
2022-11-17T03:08:25.646Z,20.07
2022-11-17T03:11:01.154Z,20.37
2022-11-17T03:13:40.936Z,19.73
2022-11-17T03:16:19.157Z,16.17
2022-11-17T03:19:02.134Z,18.27
2022-11-17T03:21:36.353Z,19.50
2022-11-17T03:24:11.875Z,19.00
2022-11-17T03:26:44.906Z,17.80
2022-11-17T03:29:18.314Z,19.23
2022-11-17T03:31:52.198Z,21.07
2022-11-17T03:34:25.233Z,19.07
2022-11-17T03:37:00.468Z,18.77
2022-11-17T03:39:32.915Z,19.83
2022-11-17T03:42:05.634Z,17.90
2022-11-17T03:44:37.894Z,17.73
2022-11-17T03:47:11.475Z,20.23
2022-11-17T03:49:46.405Z,19.20
2022-11-17T03:52:16.354Z,18.07
2022-11-17T03:54:46.689Z,18.00
2022-11-17T03:57:19.957Z,18.47
2022-11-17T03:59:53.894Z,18.47
2022-11-17T04:02:27.794Z,17.37
2022-11-17T04:05:09.953Z,17.07
2022-11-17T04:07:42.119Z,16.70
2022-11-17T04:10:13.556Z,16.13
2022-11-17T04:13:00.993Z,15.63
2022-11-17T04:15:47.480Z,14.90
2022-11-17T04:18:18.693Z,15.60
2022-11-17T04:20:52.118Z,14.07
2022-11-17T04:23:21.892Z,15.37
2022-11-17T04:26:11.240Z,14.70
2022-11-17T04:28:42.918Z,15.00
2022-11-17T04:31:15.633Z,14.20
2022-11-17T04:33:48.678Z,14.37
2022-11-17T04:36:20.114Z,16.07
2022-11-17T04:38:51.872Z,13.50
2022-11-17T04:41:40.833Z,13.37
2022-11-17T04:44:12.513Z,13.07
2022-11-17T04:46:44.673Z,14.37
2022-11-17T04:49:17.393Z,13.83
2022-11-17T04:51:47.476Z,14.30
2022-11-17T04:54:22.900Z,13.80
2022-11-17T04:56:53.554Z,14.90
2022-11-17T04:59:24.672Z,14.87
2022-11-17T05:01:55.255Z,15.73
2022-11-17T05:04:44.044Z,14.63
2022-11-17T05:07:13.737Z,14.47
2022-11-17T05:09:43.954Z,18.30
2022-11-17T05:12:31.155Z,17.73
2022-11-17T05:15:02.500Z,17.53
2022-11-17T05:17:31.555Z,18.30
2022-11-17T05:20:03.298Z,17.90
2022-11-17T05:22:50.675Z,20.67
2022-11-17T05:25:20.834Z,23.30
2022-11-17T05:27:50.574Z,20.00
2022-11-17T05:30:20.765Z,22.03
2022-11-17T05:32:50.399Z,19.93
2022-11-17T05:35:22.274Z,21.10
2022-11-17T05:37:52.314Z,20.00
2022-11-17T05:40:22.345Z,19.37
2022-11-17T05:42:56.960Z,21.10
2022-11-17T05:45:27.075Z,19.97
2022-11-17T05:48:00.679Z,21.30
2022-11-17T05:50:32.042Z,20.77
2022-11-17T05:53:02.040Z,22.07
2022-11-17T05:55:32.049Z,19.10
2022-11-17T05:58:05.556Z,19.67
2022-11-17T06:00:36.361Z,19.67
2022-11-17T06:03:11.729Z,19.70
2022-11-17T06:05:43.175Z,20.30
2022-11-17T06:08:13.525Z,19.37
2022-11-17T06:10:43.479Z,22.00
2022-11-17T06:13:13.158Z,18.93
2022-11-17T06:15:43.939Z,20.80
2022-11-17T06:18:17.006Z,22.07
2022-11-17T06:20:50.985Z,21.13
2022-11-17T06:23:21.560Z,21.97
2022-11-17T06:25:51.576Z,20.43
2022-11-17T06:28:22.767Z,20.40
2022-11-17T06:30:52.841Z,22.37
2022-11-17T06:33:23.041Z,19.60
2022-11-17T06:35:56.526Z,20.30
2022-11-17T06:38:26.762Z,19.10
2022-11-17T06:40:56.921Z,19.13
2022-11-17T06:43:27.000Z,20.47
2022-11-17T06:45:57.669Z,22.57
2022-11-17T06:48:28.686Z,19.47
2022-11-17T06:51:00.448Z,19.93
2022-11-17T06:53:30.611Z,20.60
2022-11-17T06:56:09.928Z,18.90
2022-11-17T06:58:41.724Z,20.20
2022-11-17T07:01:13.857Z,18.87
2022-11-17T07:03:44.914Z,20.70
2022-11-17T07:06:17.413Z,20.57
2022-11-17T07:08:47.782Z,20.23
2022-11-17T07:11:18.683Z,20.30
2022-11-17T07:13:48.916Z,18.47
2022-11-17T07:16:23.882Z,18.40
2022-11-17T07:18:55.214Z,20.70
2022-11-17T07:21:27.314Z,19.70
2022-11-17T07:23:57.414Z,19.57
2022-11-17T07:26:28.348Z,18.00
2022-11-17T07:28:58.885Z,17.90
2022-11-17T07:31:29.127Z,17.83
2022-11-17T07:33:59.229Z,21.37
2022-11-17T07:36:31.283Z,19.07
2022-11-17T07:39:01.292Z,19.93
2022-11-17T07:41:32.688Z,19.23
2022-11-17T07:44:02.512Z,17.63
2022-11-17T07:46:33.301Z,19.93
2022-11-17T07:49:03.472Z,20.30
2022-11-17T07:51:34.932Z,17.90
2022-11-17T07:54:05.147Z,19.90
2022-11-17T07:56:35.725Z,17.73
2022-11-17T07:59:05.896Z,17.60
2022-11-17T08:01:36.122Z,19.07
2022-11-17T08:04:06.214Z,19.30
2022-11-17T08:06:38.602Z,18.27
2022-11-17T08:09:10.980Z,20.40
2022-11-17T08:11:41.222Z,18.47
2022-11-17T08:14:11.084Z,17.87
2022-11-17T08:16:41.243Z,18.43
2022-11-17T08:19:12.883Z,18.40
2022-11-17T08:21:44.992Z,18.57
2022-11-17T08:24:15.085Z,20.27
2022-11-17T08:26:44.962Z,20.53
2022-11-17T08:29:15.235Z,19.23
2022-11-17T08:31:46.482Z,20.23
2022-11-17T08:34:16.882Z,17.93
2022-11-17T08:36:48.247Z,19.50
2022-11-17T08:39:18.423Z,17.70
2022-11-17T08:41:48.481Z,17.50
2022-11-17T08:44:18.423Z,18.80
2022-11-17T08:46:49.402Z,19.07
2022-11-17T08:49:19.321Z,18.20
2022-11-17T08:51:51.161Z,20.00
2022-11-17T08:54:21.202Z,18.63
2022-11-17T08:56:51.195Z,19.80
2022-11-17T08:59:21.217Z,18.87
2022-11-17T09:01:50.981Z,17.20
2022-11-17T09:04:21.617Z,17.20
2022-11-17T09:06:53.247Z,17.73
2022-11-17T09:09:23.253Z,18.20
2022-11-17T09:11:54.305Z,17.40
2022-11-17T09:14:24.063Z,18.63
2022-11-17T09:16:54.013Z,18.53
2022-11-17T09:19:24.317Z,17.93
2022-11-17T09:21:55.517Z,15.60
2022-11-17T09:24:27.077Z,17.67
2022-11-17T09:26:57.648Z,17.73
2022-11-17T09:29:27.758Z,20.10
2022-11-17T09:31:57.799Z,21.53
2022-11-17T09:34:28.067Z,20.20
2022-11-17T09:37:00.018Z,18.93
2022-11-17T09:39:30.078Z,18.00
2022-11-17T09:42:00.329Z,18.50
2022-11-17T09:44:40.497Z,18.50
2022-11-17T09:47:20.543Z,20.00
2022-11-17T09:49:59.229Z,19.53
2022-11-17T09:52:37.969Z,17.73
2022-11-17T09:55:19.517Z,18.80
2022-11-17T09:57:53.697Z,19.67
2022-11-17T10:00:25.136Z,18.53
2022-11-17T10:02:56.659Z,20.37
2022-11-17T10:05:30.259Z,19.23
2022-11-17T10:08:04.097Z,20.40
2022-11-17T10:10:39.476Z,19.00
2022-11-17T10:13:15.678Z,20.10
2022-11-17T10:15:49.557Z,20.60
2022-11-17T10:18:19.398Z,21.13
2022-11-17T10:20:49.200Z,19.30
2022-11-17T10:23:22.157Z,22.60
2022-11-17T10:25:59.063Z,20.47
2022-11-17T10:28:30.997Z,20.67
2022-11-17T10:31:02.897Z,21.03
2022-11-17T10:33:38.433Z,18.73
2022-11-17T10:36:16.317Z,20.83
2022-11-17T10:38:49.663Z,20.10
2022-11-17T10:41:22.117Z,19.90
2022-11-17T10:43:59.783Z,20.50
2022-11-17T10:46:41.727Z,20.33
2022-11-17T10:49:27.078Z,21.37
2022-11-17T10:52:07.957Z,20.50
2022-11-17T10:54:39.719Z,18.77
2022-11-17T10:57:17.300Z,19.10
2022-11-17T10:59:55.195Z,21.37
2022-11-17T11:02:32.578Z,20.40
2022-11-17T11:05:10.663Z,20.87
2022-11-17T11:07:40.756Z,17.87
2022-11-17T11:10:18.629Z,20.90
2022-11-17T11:12:51.798Z,19.70
2022-11-17T11:15:23.857Z,20.70
2022-11-17T11:17:54.658Z,19.50
2022-11-17T11:20:32.756Z,20.10
2022-11-17T11:23:06.158Z,21.60
2022-11-17T11:25:42.917Z,20.30
2022-11-17T11:28:19.677Z,18.73
2022-11-17T11:30:57.278Z,19.13
2022-11-17T11:33:35.537Z,19.03
2022-11-17T11:36:29.139Z,20.00
2022-11-17T11:39:02.417Z,17.30
2022-11-17T11:42:08.288Z,17.87
2022-11-17T11:44:47.777Z,19.53
2022-11-17T11:47:26.998Z,17.90
2022-11-17T11:49:58.726Z,19.03
2022-11-17T11:52:32.484Z,18.17
2022-11-17T11:55:05.157Z,19.10
2022-11-17T11:57:41.637Z,20.03
2022-11-17T12:00:18.658Z,18.40
2022-11-17T12:02:53.407Z,18.13
2022-11-17T12:05:30.439Z,18.23
2022-11-17T12:08:10.611Z,17.60
2022-11-17T12:10:47.087Z,16.77
2022-11-17T12:13:22.579Z,16.90
2022-11-17T12:15:53.878Z,19.43
2022-11-17T12:18:33.699Z,17.27
2022-11-17T12:21:06.437Z,18.10
2022-11-17T12:23:57.557Z,18.37
2022-11-17T12:26:30.278Z,18.30
2022-11-17T12:29:33.078Z,17.60
2022-11-17T12:32:04.597Z,19.37
2022-11-17T12:34:37.242Z,17.27
2022-11-17T12:37:25.857Z,16.43
2022-11-17T12:40:08.177Z,16.40
2022-11-17T12:42:38.427Z,18.60
2022-11-17T12:45:12.179Z,15.80
2022-11-17T12:47:50.892Z,17.60
2022-11-17T12:50:54.258Z,15.87
2022-11-17T12:53:44.657Z,17.53
2022-11-17T12:56:32.900Z,16.43
2022-11-17T12:59:38.442Z,15.43
2022-11-17T13:02:22.496Z,14.70
2022-11-17T13:04:55.539Z,13.67
2022-11-17T13:07:27.065Z,13.77
2022-11-17T13:09:59.684Z,15.90
2022-11-17T13:12:31.531Z,12.50
2022-11-17T13:15:04.256Z,13.80
2022-11-17T13:17:44.931Z,12.23
2022-11-17T13:20:20.037Z,12.43
2022-11-17T13:23:03.140Z,12.33
2022-11-17T13:25:33.138Z,11.40
2022-11-17T13:28:05.024Z,11.70
2022-11-17T13:30:36.417Z,11.07
2022-11-17T13:33:14.256Z,12.20
2022-11-17T13:35:44.637Z,11.77
2022-11-17T13:38:23.301Z,11.67
2022-11-17T13:40:54.737Z,12.10
2022-11-17T13:43:26.416Z,14.23
2022-11-17T13:45:57.618Z,12.70
2022-11-17T13:48:36.438Z,10.73
2022-11-17T13:51:40.214Z,13.10
2022-11-17T13:54:17.939Z,10.40
2022-11-17T13:56:52.976Z,13.37
2022-11-17T13:59:26.578Z,12.40
2022-11-17T14:02:30.816Z,11.33
2022-11-17T14:05:23.289Z,11.30
2022-11-17T14:07:54.085Z,11.60
2022-11-17T14:10:35.056Z,11.37
2022-11-17T14:13:33.856Z,11.60
2022-11-17T14:16:03.938Z,12.50
2022-11-17T14:18:38.017Z,10.33
2022-11-17T14:21:15.323Z,10.97
2022-11-17T14:23:46.025Z,11.00
2022-11-17T14:26:26.426Z,9.97
2022-11-17T14:29:02.339Z,9.60
2022-11-17T14:31:34.185Z,11.77
2022-11-17T14:34:04.179Z,9.33
2022-11-17T14:36:36.017Z,11.43
2022-11-17T14:39:08.517Z,13.53
2022-11-17T14:41:40.877Z,10.40
2022-11-17T14:44:11.465Z,10.90
2022-11-17T14:46:41.399Z,9.60
2022-11-17T14:49:12.248Z,9.27
2022-11-17T14:51:44.818Z,10.10
2022-11-17T14:54:14.899Z,9.00
2022-11-17T14:56:44.997Z,9.87
2022-11-17T14:59:16.009Z,9.60
2022-11-17T15:01:48.198Z,9.30
2022-11-17T15:07:09.358Z,10.03
2022-11-17T15:09:39.642Z,9.90
2022-11-17T15:12:10.217Z,9.30
2022-11-17T15:14:40.822Z,11.00
2022-11-17T15:17:14.444Z,11.40
2022-11-17T15:19:45.647Z,10.20
2022-11-17T15:22:18.231Z,10.43
2022-11-17T15:24:48.774Z,11.33
2022-11-17T15:27:18.686Z,8.80
2022-11-17T15:29:48.846Z,10.87
2022-11-17T15:32:18.773Z,11.77
2022-11-17T15:34:49.016Z,13.10
2022-11-17T15:37:20.864Z,11.70
2022-11-17T15:39:50.797Z,13.07
2022-11-17T15:42:20.922Z,14.07
2022-11-17T15:44:50.897Z,24.40
2022-11-17T15:47:21.318Z,24.80
2022-11-17T15:49:50.901Z,24.13
2022-11-17T15:52:41.739Z,23.80
2022-11-17T15:55:12.579Z,19.30
2022-11-17T15:57:43.577Z,18.77
2022-11-17T16:00:16.600Z,15.33
2022-11-17T16:02:46.516Z,15.60
2022-11-17T16:05:16.477Z,15.63
2022-11-17T16:07:47.840Z,14.03
2022-11-17T16:10:18.297Z,13.37
2022-11-17T16:12:49.876Z,13.60
2022-11-17T16:15:19.967Z,11.87
2022-11-17T16:17:50.178Z,13.27
2022-11-17T16:20:21.014Z,14.50
2022-11-17T16:22:52.518Z,12.63
2022-11-17T16:25:22.822Z,12.40
2022-11-17T16:27:53.749Z,14.60
2022-11-17T16:30:24.994Z,13.50
2022-11-17T16:32:56.527Z,12.00
2022-11-17T16:35:27.561Z,12.63
2022-11-17T16:38:00.074Z,12.50
2022-11-17T16:40:30.542Z,12.73
2022-11-17T16:43:01.032Z,13.63
2022-11-17T16:45:31.147Z,16.00
2022-11-17T16:48:01.723Z,13.60
2022-11-17T16:50:31.833Z,14.37
2022-11-17T16:53:03.357Z,15.67
2022-11-17T16:55:36.729Z,14.73
2022-11-17T16:58:07.749Z,14.60
2022-11-17T17:00:38.872Z,14.63
2022-11-17T17:03:09.369Z,12.70
2022-11-17T17:05:41.522Z,12.70
2022-11-17T17:08:13.407Z,13.87
2022-11-17T17:10:44.303Z,15.27
2022-11-17T17:13:15.737Z,14.83
2022-11-17T17:15:46.032Z,14.70
2022-11-17T17:18:16.114Z,13.90
2022-11-17T17:20:53.157Z,13.53
2022-11-17T17:23:25.633Z,13.90
2022-11-17T17:26:03.609Z,14.87
2022-11-17T17:28:34.997Z,14.63
2022-11-17T17:31:05.488Z,16.80
2022-11-17T17:33:36.892Z,14.33
2022-11-17T17:36:09.538Z,14.27
2022-11-17T17:38:41.957Z,15.67
2022-11-17T17:41:13.398Z,13.27
2022-11-17T17:43:46.074Z,14.83
2022-11-17T17:46:18.062Z,14.07
2022-11-17T17:48:48.319Z,16.87
2022-11-17T17:51:20.122Z,18.30
2022-11-17T17:53:52.120Z,16.57
2022-11-17T17:56:23.927Z,16.90
2022-11-17T17:58:55.505Z,16.33
2022-11-17T18:01:26.891Z,18.00
2022-11-17T18:04:01.625Z,17.43
2022-11-17T18:06:31.874Z,17.00
2022-11-17T18:09:03.957Z,17.47
2022-11-17T18:11:33.784Z,18.70
2022-11-17T18:14:03.745Z,21.60
2022-11-17T18:16:34.517Z,19.37
2022-11-17T18:19:07.077Z,20.80
2022-11-17T18:21:37.037Z,21.13
2022-11-17T18:24:09.100Z,21.70
2022-11-17T18:26:41.402Z,22.63
2022-11-17T18:29:15.420Z,22.70
2022-11-17T18:31:47.624Z,20.40
2022-11-17T18:34:21.265Z,19.60
2022-11-17T18:36:52.201Z,21.13
2022-11-17T18:39:28.459Z,18.90
2022-11-17T18:41:58.618Z,20.30
2022-11-17T18:44:28.377Z,19.60
2022-11-17T18:47:02.466Z,18.63
2022-11-17T18:49:34.977Z,20.27
2022-11-17T18:52:05.618Z,19.90
2022-11-17T18:54:37.607Z,21.20
2022-11-17T18:57:10.271Z,21.10
2022-11-17T18:59:39.862Z,20.53
2022-11-17T19:02:11.327Z,20.30
2022-11-17T19:04:41.535Z,21.00
2022-11-17T19:07:12.270Z,18.97
2022-11-17T19:09:56.763Z,17.20
2022-11-17T19:12:28.736Z,18.90
2022-11-17T19:14:59.026Z,20.83
2022-11-17T19:17:28.852Z,19.40
2022-11-17T19:19:59.007Z,18.50
2022-11-17T19:22:30.337Z,20.60
2022-11-17T19:25:01.878Z,21.80
2022-11-17T19:27:32.077Z,21.43
2022-11-17T19:30:03.177Z,23.47
2022-11-17T19:32:33.337Z,24.37
2022-11-17T19:35:13.609Z,24.60
2022-11-17T19:37:46.594Z,23.87
2022-11-17T19:40:19.019Z,23.07
2022-11-17T19:42:50.896Z,23.03
2022-11-17T19:45:21.241Z,21.33
2022-11-17T19:47:51.371Z,20.47
2022-11-17T19:50:22.663Z,19.37
2022-11-17T19:52:53.297Z,18.93
2022-11-17T19:55:30.303Z,19.60
2022-11-17T19:58:00.284Z,19.90
2022-11-17T20:00:30.159Z,23.07
2022-11-17T20:02:59.878Z,23.17
2022-11-17T20:05:30.709Z,22.80
2022-11-17T20:08:00.799Z,23.10
2022-11-17T20:10:34.877Z,21.13
2022-11-17T20:13:04.978Z,20.43
2022-11-17T20:15:37.322Z,20.13
2022-11-17T20:18:07.536Z,20.13
2022-11-17T20:20:40.202Z,17.70
2022-11-17T20:23:10.590Z,18.37
2022-11-17T20:25:43.099Z,20.27
2022-11-17T20:28:13.189Z,19.17
2022-11-17T20:30:47.509Z,25.50
2022-11-17T20:33:17.904Z,26.90
2022-11-17T20:35:48.278Z,26.47
2022-11-17T20:38:19.708Z,26.87
2022-11-17T20:40:53.724Z,24.83
2022-11-17T20:43:39.296Z,24.40
2022-11-17T20:46:09.796Z,22.90
2022-11-17T20:48:43.381Z,22.40
2022-11-17T20:51:19.018Z,22.80
2022-11-17T20:53:50.636Z,19.83
2022-11-17T20:56:22.986Z,18.53
2022-11-17T20:58:54.631Z,19.13
2022-11-17T21:01:25.448Z,20.63
2022-11-17T21:03:56.357Z,21.90
2022-11-17T21:06:26.361Z,21.20
2022-11-17T21:08:56.836Z,20.87
2022-11-17T21:11:45.722Z,20.43
2022-11-17T21:14:17.038Z,22.43
2022-11-17T21:16:49.999Z,23.57
2022-11-17T21:19:22.862Z,23.60
2022-11-17T21:21:54.742Z,23.97
2022-11-17T21:24:26.361Z,22.57
2022-11-17T21:26:59.244Z,21.40
2022-11-17T21:29:31.207Z,18.80
2022-11-17T21:32:01.262Z,20.23
2022-11-17T21:34:32.523Z,18.30
2022-11-17T21:37:02.597Z,19.13
2022-11-17T21:39:34.062Z,20.97
2022-11-17T21:42:08.557Z,20.27
2022-11-17T21:44:40.248Z,21.90
2022-11-17T21:47:11.057Z,22.83
2022-11-17T21:49:43.572Z,20.30
2022-11-17T21:52:13.312Z,19.17
2022-11-17T21:54:43.180Z,18.87
2022-11-17T21:57:14.648Z,20.70
2022-11-17T21:59:45.138Z,23.10
2022-11-17T22:02:15.807Z,22.57
2022-11-17T22:04:47.422Z,22.50
2022-11-17T22:07:18.782Z,21.50
2022-11-17T22:09:48.679Z,21.00
2022-11-17T22:12:22.528Z,21.07
2022-11-17T22:14:53.081Z,17.23
2022-11-17T22:17:23.501Z,19.00
2022-11-17T22:19:53.480Z,20.50
2022-11-17T22:22:23.358Z,21.07
2022-11-17T22:24:53.319Z,17.70
2022-11-17T22:27:26.958Z,19.20
2022-11-17T22:29:57.437Z,19.57
2022-11-17T22:32:27.438Z,18.23
2022-11-17T22:35:01.629Z,19.80
2022-11-17T22:37:32.067Z,17.97
2022-11-17T22:40:02.081Z,16.40
2022-11-17T22:42:33.257Z,15.80
2022-11-17T22:45:03.358Z,14.93
2022-11-17T22:47:33.817Z,16.33
2022-11-17T22:50:04.657Z,15.93
2022-11-17T22:52:34.777Z,15.00
2022-11-17T22:55:05.245Z,14.67
2022-11-17T22:57:37.183Z,14.70
2022-11-17T23:00:12.359Z,14.33
2022-11-17T23:02:42.237Z,15.17
2022-11-17T23:05:12.257Z,15.37
2022-11-17T23:07:42.212Z,14.80
2022-11-17T23:10:12.677Z,14.93
2022-11-17T23:12:45.499Z,14.30
2022-11-17T23:15:15.838Z,15.03
2022-11-17T23:17:45.845Z,15.47
2022-11-17T23:20:15.322Z,15.50
2022-11-17T23:22:45.587Z,14.57
2022-11-17T23:25:15.818Z,16.07
2022-11-17T23:27:47.838Z,14.90
2022-11-17T23:30:18.778Z,15.13
2022-11-17T23:32:49.840Z,14.20
2022-11-17T23:35:20.056Z,13.90
2022-11-17T23:37:49.397Z,15.20
2022-11-17T23:40:19.358Z,14.13
2022-11-17T23:42:50.581Z,13.77
2022-11-17T23:45:20.067Z,14.57
2022-11-17T23:47:50.141Z,14.97
2022-11-17T23:50:20.597Z,15.03
2022-11-17T23:52:52.366Z,15.03
2022-11-17T23:55:22.424Z,16.70
2022-11-17T23:57:55.017Z,17.80
